TimePDT,TemperatureF,Dew PointF,Humidity,Sea Level PressureIn,VisibilityMPH,Wind Direction,Wind SpeedMPH,Gust SpeedMPH,PrecipitationIn,Events,Conditions,WindDirDegrees,DateUTC
12:53 AM,60.1,39.0,46,30.06,10.0,NNW,3.5,-,N/A,,Clear,330,2013-04-20 07:53:00
1:53 AM,57.0,39.0,51,30.05,10.0,Calm,Calm,-,N/A,,Clear,0,2013-04-20 08:53:00
2:53 AM,48.9,36.0,61,30.04,10.0,Calm,Calm,-,N/A,,Clear,0,2013-04-20 09:53:00
3:53 AM,46.0,36.0,68,30.05,10.0,East,3.5,-,N/A,,Clear,80,2013-04-20 10:53:00
4:53 AM,46.9,35.1,63,30.04,10.0,Calm,Calm,-,N/A,,Clear,0,2013-04-20 11:53:00
5:53 AM,45.0,35.1,68,30.04,10.0,Calm,Calm,-,N/A,,Clear,0,2013-04-20 12:53:00
6:53 AM,45.0,35.1,68,30.05,10.0,Calm,Calm,-,N/A,,Clear,0,2013-04-20 13:53:00
7:53 AM,52.0,41.0,66,30.06,10.0,NNW,5.8,-,N/A,,Clear,340,2013-04-20 14:53:00
8:53 AM,59.0,44.1,58,30.04,10.0,NNW,8.1,-,N/A,,Clear,330,2013-04-20 15:53:00
9:53 AM,64.9,44.1,47,30.03,10.0,NW,8.1,-,N/A,,Clear,310,2013-04-20 16:53:00
10:53 AM,73.0,43.0,34,30.02,10.0,NW,9.2,-,N/A,,Clear,310,2013-04-20 17:53:00
11:53 AM,77.0,41.0,28,30.00,10.0,Variable,4.6,-,N/A,,Clear,0,2013-04-20 18:53:00
12:53 PM,81.0,39.0,22,29.98,10.0,Calm,Calm,-,N/A,,Clear,0,2013-04-20 19:53:00
1:53 PM,82.9,37.9,20,29.96,10.0,WNW,8.1,-,N/A,,Clear,290,2013-04-20 20:53:00
2:53 PM,86.0,37.0,18,29.94,10.0,NNW,8.1,-,N/A,,Clear,330,2013-04-20 21:53:00
3:53 PM,86.0,36.0,17,29.92,10.0,West,8.1,-,N/A,,Clear,280,2013-04-20 22:53:00
4:53 PM,86.0,37.0,18,29.91,10.0,SSE,4.6,-,N/A,,Clear,150,2013-04-20 23:53:00
5:53 PM,86.0,39.0,19,29.90,10.0,SSW,5.8,-,N/A,,Clear,200,2013-04-21 00:53:00
6:53 PM,81.0,39.9,23,29.92,10.0,SSW,9.2,-,N/A,,Clear,210,2013-04-21 01:53:00
7:53 PM,73.9,37.9,27,29.94,10.0,West,5.8,-,N/A,,Clear,270,2013-04-21 02:53:00
8:53 PM,68.0,39.0,35,29.97,10.0,WNW,12.7,-,N/A,,Clear,300,2013-04-21 03:53:00
9:53 PM,64.0,39.0,40,30.00,10.0,WNW,15.0,-,N/A,,Clear,300,2013-04-21 04:53:00
10:53 PM,61.0,37.9,42,30.00,10.0,NW,10.4,-,N/A,,Clear,310,2013-04-21 05:53:00
11:53 PM,59.0,37.9,46,30.01,10.0,NW,6.9,-,N/A,,Clear,320,2013-04-21 06:53:00